sensor_id;sensor_type;location;lat;lon;timestamp;temperature;humidity
19025;DHT22;9645;51.448;6.260;2024-03-02T00:00:32;7.30;80.70
19025;DHT22;9645;51.448;6.260;2024-03-02T00:03:00;7.50;1.00
19025;DHT22;9645;51.448;6.260;2024-03-02T00:05:27;7.20;1.00
19025;DHT22;9645;51.448;6.260;2024-03-02T00:07:55;7.30;1.00
19025;DHT22;9645;51.448;6.260;2024-03-02T00:10:24;7.20;1.00
19025;DHT22;9645;51.448;6.260;2024-03-02T00:12:55;7.20;1.00
19025;DHT22;9645;51.448;6.260;2024-03-02T00:15:40;7.20;99.90
19025;DHT22;9645;51.448;6.260;2024-03-02T00:18:10;7.30;2.50
19025;DHT22;9645;51.448;6.260;2024-03-02T00:20:38;7.30;1.00
19025;DHT22;9645;51.448;6.260;2024-03-02T00:23:07;7.40;1.00
19025;DHT22;9645;51.448;6.260;2024-03-02T00:25:38;7.50;1.00
19025;DHT22;9645;51.448;6.260;2024-03-02T00:28:09;7.50;1.00
19025;DHT22;9645;51.448;6.260;2024-03-02T00:30:55;7.60;1.00
19025;DHT22;9645;51.448;6.260;2024-03-02T00:33:23;7.60;99.90
19025;DHT22;9645;51.448;6.260;2024-03-02T00:35:51;7.70;1.00
19025;DHT22;9645;51.448;6.260;2024-03-02T00:38:18;7.80;1.00
19025;DHT22;9645;51.448;6.260;2024-03-02T00:40:46;7.90;1.00
19025;DHT22;9645;51.448;6.260;2024-03-02T00:46:07;8.10;1.00
19025;DHT22;9645;51.448;6.260;2024-03-02T00:48:34;8.20;99.90
19025;DHT22;9645;51.448;6.260;2024-03-02T00:51:03;8.30;99.90
19025;DHT22;9645;51.448;6.260;2024-03-02T00:53:31;8.40;99.90
19025;DHT22;9645;51.448;6.260;2024-03-02T00:55:58;8.40;97.70
19025;DHT22;9645;51.448;6.260;2024-03-02T00:58:26;8.50;23.70
19025;DHT22;9645;51.448;6.260;2024-03-02T01:00:53;8.60;39.80
19025;DHT22;9645;51.448;6.260;2024-03-02T01:03:25;8.60;1.00
19025;DHT22;9645;51.448;6.260;2024-03-02T01:05:52;8.60;1.00
19025;DHT22;9645;51.448;6.260;2024-03-02T01:08:19;8.60;1.00
19025;DHT22;9645;51.448;6.260;2024-03-02T01:10:46;8.70;1.00
19025;DHT22;9645;51.448;6.260;2024-03-02T01:13:13;8.70;1.00
19025;DHT22;9645;51.448;6.260;2024-03-02T01:15:41;8.80;1.00
19025;DHT22;9645;51.448;6.260;2024-03-02T01:18:08;8.80;1.00
19025;DHT22;9645;51.448;6.260;2024-03-02T01:20:36;8.80;1.00
19025;DHT22;9645;51.448;6.260;2024-03-02T01:23:06;8.90;1.00
19025;DHT22;9645;51.448;6.260;2024-03-02T01:25:33;8.90;1.00
19025;DHT22;9645;51.448;6.260;2024-03-02T01:28:01;8.90;1.00
19025;DHT22;9645;51.448;6.260;2024-03-02T01:30:28;8.90;1.00
19025;DHT22;9645;51.448;6.260;2024-03-02T01:32:55;8.90;1.00
19025;DHT22;9645;51.448;6.260;2024-03-02T01:35:25;9.00;1.00
19025;DHT22;9645;51.448;6.260;2024-03-02T01:37:57;8.90;1.00
19025;DHT22;9645;51.448;6.260;2024-03-02T01:40:24;9.00;1.00
19025;DHT22;9645;51.448;6.260;2024-03-02T01:42:52;8.90;1.00
19025;DHT22;9645;51.448;6.260;2024-03-02T01:45:19;9.00;1.00
19025;DHT22;9645;51.448;6.260;2024-03-02T01:47:46;9.00;1.00
19025;DHT22;9645;51.448;6.260;2024-03-02T01:50:13;9.00;1.00
19025;DHT22;9645;51.448;6.260;2024-03-02T01:52:41;9.00;1.00
19025;DHT22;9645;51.448;6.260;2024-03-02T01:55:11;9.00;1.00
19025;DHT22;9645;51.448;6.260;2024-03-02T01:57:38;9.00;1.00
19025;DHT22;9645;51.448;6.260;2024-03-02T02:00:06;8.90;1.00
19025;DHT22;9645;51.448;6.260;2024-03-02T02:02:35;8.80;99.90
19025;DHT22;9645;51.448;6.260;2024-03-02T02:05:03;8.70;1.00
19025;DHT22;9645;51.448;6.260;2024-03-02T02:07:30;8.60;1.00
19025;DHT22;9645;51.448;6.260;2024-03-02T02:09:58;8.60;1.00
19025;DHT22;9645;51.448;6.260;2024-03-02T02:12:27;8.50;1.00
19025;DHT22;9645;51.448;6.260;2024-03-02T02:14:54;8.40;99.90
19025;DHT22;9645;51.448;6.260;2024-03-02T02:17:21;8.30;99.90
19025;DHT22;9645;51.448;6.260;2024-03-02T02:19:48;8.30;1.00
19025;DHT22;9645;51.448;6.260;2024-03-02T02:22:16;8.30;1.00
19025;DHT22;9645;51.448;6.260;2024-03-02T02:24:43;8.20;1.00
19025;DHT22;9645;51.448;6.260;2024-03-02T02:27:10;8.20;1.00
19025;DHT22;9645;51.448;6.260;2024-03-02T02:29:38;8.10;99.90
19025;DHT22;9645;51.448;6.260;2024-03-02T02:32:05;8.20;99.90
19025;DHT22;9645;51.448;6.260;2024-03-02T02:34:32;8.20;99.90
19025;DHT22;9645;51.448;6.260;2024-03-02T02:36:59;8.10;99.90
19025;DHT22;9645;51.448;6.260;2024-03-02T02:39:28;8.10;99.90
19025;DHT22;9645;51.448;6.260;2024-03-02T02:41:55;8.10;99.90
19025;DHT22;9645;51.448;6.260;2024-03-02T02:44:22;8.10;99.90
19025;DHT22;9645;51.448;6.260;2024-03-02T02:46:49;8.10;99.90
19025;DHT22;9645;51.448;6.260;2024-03-02T02:49:16;8.10;99.90
19025;DHT22;9645;51.448;6.260;2024-03-02T02:51:43;8.10;99.90
19025;DHT22;9645;51.448;6.260;2024-03-02T02:54:09;8.10;1.00
19025;DHT22;9645;51.448;6.260;2024-03-02T02:56:38;8.10;1.00
19025;DHT22;9645;51.448;6.260;2024-03-02T02:59:05;8.10;1.00
19025;DHT22;9645;51.448;6.260;2024-03-02T03:01:32;8.20;99.90
19025;DHT22;9645;51.448;6.260;2024-03-02T03:03:59;8.10;1.00
19025;DHT22;9645;51.448;6.260;2024-03-02T03:06:26;8.20;1.00
19025;DHT22;9645;51.448;6.260;2024-03-02T03:08:52;8.20;99.20
19025;DHT22;9645;51.448;6.260;2024-03-02T03:11:19;8.30;1.00
19025;DHT22;9645;51.448;6.260;2024-03-02T03:13:49;8.20;1.00
19025;DHT22;9645;51.448;6.260;2024-03-02T03:16:16;8.30;1.00
19025;DHT22;9645;51.448;6.260;2024-03-02T03:18:43;8.30;1.00
19025;DHT22;9645;51.448;6.260;2024-03-02T03:21:10;8.30;99.90
19025;DHT22;9645;51.448;6.260;2024-03-02T03:23:37;8.30;99.90
19025;DHT22;9645;51.448;6.260;2024-03-02T03:26:04;8.30;1.00
19025;DHT22;9645;51.448;6.260;2024-03-02T03:28:31;8.40;1.00
19025;DHT22;9645;51.448;6.260;2024-03-02T03:30:59;8.40;99.90
19025;DHT22;9645;51.448;6.260;2024-03-02T03:33:27;8.30;99.90
19025;DHT22;9645;51.448;6.260;2024-03-02T03:35:54;8.20;1.00
19025;DHT22;9645;51.448;6.260;2024-03-02T03:38:21;8.10;1.00
19025;DHT22;9645;51.448;6.260;2024-03-02T03:40:48;8.00;1.00
19025;DHT22;9645;51.448;6.260;2024-03-02T03:43:15;7.90;4.20
19025;DHT22;9645;51.448;6.260;2024-03-02T03:45:42;7.90;43.00
19025;DHT22;9645;51.448;6.260;2024-03-02T03:48:10;7.90;99.90
19025;DHT22;9645;51.448;6.260;2024-03-02T03:50:37;7.90;99.90
19025;DHT22;9645;51.448;6.260;2024-03-02T03:53:04;7.90;99.90
19025;DHT22;9645;51.448;6.260;2024-03-02T03:55:31;8.00;12.00
19025;DHT22;9645;51.448;6.260;2024-03-02T03:57:58;7.90;99.90
19025;DHT22;9645;51.448;6.260;2024-03-02T04:00:25;7.90;99.90
19025;DHT22;9645;51.448;6.260;2024-03-02T04:02:52;7.90;99.90
19025;DHT22;9645;51.448;6.260;2024-03-02T04:05:20;7.90;99.90
19025;DHT22;9645;51.448;6.260;2024-03-02T04:07:47;7.80;1.00
19025;DHT22;9645;51.448;6.260;2024-03-02T04:10:14;7.80;99.90
19025;DHT22;9645;51.448;6.260;2024-03-02T04:13:06;7.80;1.00
19025;DHT22;9645;51.448;6.260;2024-03-02T04:41:20;7.50;99.90
19025;DHT22;9645;51.448;6.260;2024-03-02T04:43:47;7.40;1.00
19025;DHT22;9645;51.448;6.260;2024-03-02T04:46:14;7.40;1.00
19025;DHT22;9645;51.448;6.260;2024-03-02T04:48:41;7.40;1.00
19025;DHT22;9645;51.448;6.260;2024-03-02T04:51:08;7.50;1.00
19025;DHT22;9645;51.448;6.260;2024-03-02T04:53:35;7.40;1.00
19025;DHT22;9645;51.448;6.260;2024-03-02T04:56:02;7.30;54.50
19025;DHT22;9645;51.448;6.260;2024-03-02T04:59:06;7.30;99.90
19025;DHT22;9645;51.448;6.260;2024-03-02T05:01:33;7.40;99.90
19025;DHT22;9645;51.448;6.260;2024-03-02T05:04:00;7.30;1.00
19025;DHT22;9645;51.448;6.260;2024-03-02T05:06:27;7.30;1.00
19025;DHT22;9645;51.448;6.260;2024-03-02T05:08:54;7.20;1.00
19025;DHT22;9645;51.448;6.260;2024-03-02T05:11:21;7.20;1.00
19025;DHT22;9645;51.448;6.260;2024-03-02T05:14:26;7.20;1.00
19025;DHT22;9645;51.448;6.260;2024-03-02T05:16:53;7.20;1.00
19025;DHT22;9645;51.448;6.260;2024-03-02T05:19:20;7.30;1.00
19025;DHT22;9645;51.448;6.260;2024-03-02T05:21:47;7.40;1.00
19025;DHT22;9645;51.448;6.260;2024-03-02T05:24:15;7.40;1.00
19025;DHT22;9645;51.448;6.260;2024-03-02T05:26:42;7.50;1.00
19025;DHT22;9645;51.448;6.260;2024-03-02T05:29:09;7.50;99.90
19025;DHT22;9645;51.448;6.260;2024-03-02T05:31:37;7.50;99.90
19025;DHT22;9645;51.448;6.260;2024-03-02T05:34:04;7.50;58.10
19025;DHT22;9645;51.448;6.260;2024-03-02T05:36:32;7.40;1.00
19025;DHT22;9645;51.448;6.260;2024-03-02T05:38:58;7.40;1.00
19025;DHT22;9645;51.448;6.260;2024-03-02T05:41:25;7.40;1.00
19025;DHT22;9645;51.448;6.260;2024-03-02T05:43:52;7.30;42.10
19025;DHT22;9645;51.448;6.260;2024-03-02T05:46:19;7.30;99.90
19025;DHT22;9645;51.448;6.260;2024-03-02T05:48:48;7.30;99.90
19025;DHT22;9645;51.448;6.260;2024-03-02T05:51:14;7.20;1.00
19025;DHT22;9645;51.448;6.260;2024-03-02T05:53:41;7.20;1.00
19025;DHT22;9645;51.448;6.260;2024-03-02T05:56:08;7.20;1.00
19025;DHT22;9645;51.448;6.260;2024-03-02T05:58:35;7.20;99.90
19025;DHT22;9645;51.448;6.260;2024-03-02T06:01:15;7.20;99.90
19025;DHT22;9645;51.448;6.260;2024-03-02T06:03:43;7.30;99.90
19025;DHT22;9645;51.448;6.260;2024-03-02T06:06:11;7.40;1.00
19025;DHT22;9645;51.448;6.260;2024-03-02T06:08:38;7.50;1.00
19025;DHT22;9645;51.448;6.260;2024-03-02T06:11:05;7.50;99.90
19025;DHT22;9645;51.448;6.260;2024-03-02T06:13:32;7.70;1.00
19025;DHT22;9645;51.448;6.260;2024-03-02T06:15:59;7.50;1.00
19025;DHT22;9645;51.448;6.260;2024-03-02T06:18:26;7.50;99.90
19025;DHT22;9645;51.448;6.260;2024-03-02T06:20:53;7.50;1.00
19025;DHT22;9645;51.448;6.260;2024-03-02T06:23:22;7.50;1.00
19025;DHT22;9645;51.448;6.260;2024-03-02T06:25:49;7.50;1.00
19025;DHT22;9645;51.448;6.260;2024-03-02T06:28:15;7.50;1.00
19025;DHT22;9645;51.448;6.260;2024-03-02T06:30:42;7.50;1.00
19025;DHT22;9645;51.448;6.260;2024-03-02T06:33:10;7.50;1.00
19025;DHT22;9645;51.448;6.260;2024-03-02T06:35:37;7.50;1.00
19025;DHT22;9645;51.448;6.260;2024-03-02T06:38:04;7.50;1.00
19025;DHT22;9645;51.448;6.260;2024-03-02T06:40:33;7.50;1.00
19025;DHT22;9645;51.448;6.260;2024-03-02T06:43:00;7.60;99.90
19025;DHT22;9645;51.448;6.260;2024-03-02T06:45:26;7.50;99.90
19025;DHT22;9645;51.448;6.260;2024-03-02T06:47:56;7.50;1.00
19025;DHT22;9645;51.448;6.260;2024-03-02T06:50:23;7.50;1.00
19025;DHT22;9645;51.448;6.260;2024-03-02T06:52:49;7.60;1.00
19025;DHT22;9645;51.448;6.260;2024-03-02T06:55:16;7.50;1.00
19025;DHT22;9645;51.448;6.260;2024-03-02T06:57:45;7.60;1.00
19025;DHT22;9645;51.448;6.260;2024-03-02T07:00:13;7.50;1.00
19025;DHT22;9645;51.448;6.260;2024-03-02T07:02:40;8.30;1.00
19025;DHT22;9645;51.448;6.260;2024-03-02T07:05:07;7.60;99.90
19025;DHT22;9645;51.448;6.260;2024-03-02T07:07:35;7.60;99.90
19025;DHT22;9645;51.448;6.260;2024-03-02T07:10:03;7.60;99.90
19025;DHT22;9645;51.448;6.260;2024-03-02T07:12:30;7.70;1.00
19025;DHT22;9645;51.448;6.260;2024-03-02T07:14:59;8.10;1.00
19025;DHT22;9645;51.448;6.260;2024-03-02T07:17:49;8.40;1.00
19025;DHT22;9645;51.448;6.260;2024-03-02T07:20:16;8.60;1.00
19025;DHT22;9645;51.448;6.260;2024-03-02T07:22:43;8.60;99.90
19025;DHT22;9645;51.448;6.260;2024-03-02T07:25:13;8.30;1.00
19025;DHT22;9645;51.448;6.260;2024-03-02T07:27:40;8.10;1.00
19025;DHT22;9645;51.448;6.260;2024-03-02T07:30:09;7.90;34.00
19025;DHT22;9645;51.448;6.260;2024-03-02T07:32:37;7.80;99.90
19025;DHT22;9645;51.448;6.260;2024-03-02T07:35:05;7.70;1.00
19025;DHT22;9645;51.448;6.260;2024-03-02T07:37:33;7.60;69.60
19025;DHT22;9645;51.448;6.260;2024-03-02T07:40:00;7.60;99.90
19025;DHT22;9645;51.448;6.260;2024-03-02T07:42:28;7.70;1.00
19025;DHT22;9645;51.448;6.260;2024-03-02T07:44:55;7.70;1.00
19025;DHT22;9645;51.448;6.260;2024-03-02T07:47:24;7.90;1.00
19025;DHT22;9645;51.448;6.260;2024-03-02T07:49:51;8.20;1.00
19025;DHT22;9645;51.448;6.260;2024-03-02T07:52:18;9.10;99.90
19025;DHT22;9645;51.448;6.260;2024-03-02T07:54:45;11.90;99.90
19025;DHT22;9645;51.448;6.260;2024-03-02T07:57:12;12.30;42.70
19025;DHT22;9645;51.448;6.260;2024-03-02T07:59:39;14.10;1.00
19025;DHT22;9645;51.448;6.260;2024-03-02T08:02:07;15.40;1.00
19025;DHT22;9645;51.448;6.260;2024-03-02T08:04:35;16.10;99.90
19025;DHT22;9645;51.448;6.260;2024-03-02T08:07:02;16.40;99.90
19025;DHT22;9645;51.448;6.260;2024-03-02T08:09:29;16.30;99.90
19025;DHT22;9645;51.448;6.260;2024-03-02T08:11:56;16.00;99.90
19025;DHT22;9645;51.448;6.260;2024-03-02T08:14:23;16.00;99.90
19025;DHT22;9645;51.448;6.260;2024-03-02T08:16:50;16.40;99.90
19025;DHT22;9645;51.448;6.260;2024-03-02T08:19:17;17.20;99.90
19025;DHT22;9645;51.448;6.260;2024-03-02T08:21:48;18.30;99.90
19025;DHT22;9645;51.448;6.260;2024-03-02T08:24:15;19.40;99.90
19025;DHT22;9645;51.448;6.260;2024-03-02T08:26:42;20.00;99.90
19025;DHT22;9645;51.448;6.260;2024-03-02T08:29:09;20.40;99.90
19025;DHT22;9645;51.448;6.260;2024-03-02T08:31:37;20.00;99.90
19025;DHT22;9645;51.448;6.260;2024-03-02T08:34:03;21.20;99.90
19025;DHT22;9645;51.448;6.260;2024-03-02T08:36:30;21.40;99.90
19025;DHT22;9645;51.448;6.260;2024-03-02T08:38:59;21.80;99.90
19025;DHT22;9645;51.448;6.260;2024-03-02T08:41:26;21.90;99.90
19025;DHT22;9645;51.448;6.260;2024-03-02T10:37:50;25.40;1.00
19025;DHT22;9645;51.448;6.260;2024-03-02T10:40:18;25.70;1.00
19025;DHT22;9645;51.448;6.260;2024-03-02T10:42:45;26.20;1.00
19025;DHT22;9645;51.448;6.260;2024-03-02T10:45:12;26.50;1.00
19025;DHT22;9645;51.448;6.260;2024-03-02T10:47:41;27.00;1.00
19025;DHT22;9645;51.448;6.260;2024-03-02T10:50:09;27.40;1.00
19025;DHT22;9645;51.448;6.260;2024-03-02T10:52:36;27.50;1.00
19025;DHT22;9645;51.448;6.260;2024-03-02T10:55:06;27.50;1.00
19025;DHT22;9645;51.448;6.260;2024-03-02T10:57:41;27.00;1.00
19025;DHT22;9645;51.448;6.260;2024-03-02T11:00:12;27.00;1.00
19025;DHT22;9645;51.448;6.260;2024-03-02T11:02:48;27.00;1.00
19025;DHT22;9645;51.448;6.260;2024-03-02T11:05:26;26.40;1.00
19025;DHT22;9645;51.448;6.260;2024-03-02T11:08:00;25.60;1.00
19025;DHT22;9645;51.448;6.260;2024-03-02T11:10:34;25.70;1.00
19025;DHT22;9645;51.448;6.260;2024-03-02T11:13:03;25.10;1.00
19025;DHT22;9645;51.448;6.260;2024-03-02T11:15:31;24.00;1.00
19025;DHT22;9645;51.448;6.260;2024-03-02T11:18:02;24.20;1.00
19025;DHT22;9645;51.448;6.260;2024-03-02T11:20:31;24.40;1.00
19025;DHT22;9645;51.448;6.260;2024-03-02T11:23:04;24.30;1.00
19025;DHT22;9645;51.448;6.260;2024-03-02T11:25:33;24.30;1.00
19025;DHT22;9645;51.448;6.260;2024-03-02T11:28:01;24.90;1.00
19025;DHT22;9645;51.448;6.260;2024-03-02T11:30:48;24.00;1.00
19025;DHT22;9645;51.448;6.260;2024-03-02T11:33:23;24.10;1.00
19025;DHT22;9645;51.448;6.260;2024-03-02T11:35:51;24.70;1.00
19025;DHT22;9645;51.448;6.260;2024-03-02T11:38:18;25.20;1.00
19025;DHT22;9645;51.448;6.260;2024-03-02T11:40:47;26.50;1.00
19025;DHT22;9645;51.448;6.260;2024-03-02T11:43:14;26.50;1.00
19025;DHT22;9645;51.448;6.260;2024-03-02T11:45:43;26.10;1.00
19025;DHT22;9645;51.448;6.260;2024-03-02T11:48:11;25.80;1.00
19025;DHT22;9645;51.448;6.260;2024-03-02T11:50:41;25.10;1.00
19025;DHT22;9645;51.448;6.260;2024-03-02T11:53:10;25.50;1.00
19025;DHT22;9645;51.448;6.260;2024-03-02T11:55:40;26.20;1.00
19025;DHT22;9645;51.448;6.260;2024-03-02T11:58:10;25.90;1.00
19025;DHT22;9645;51.448;6.260;2024-03-02T12:00:37;25.30;1.00
19025;DHT22;9645;51.448;6.260;2024-03-02T12:03:06;24.70;1.00
19025;DHT22;9645;51.448;6.260;2024-03-02T12:05:34;24.30;1.00
19025;DHT22;9645;51.448;6.260;2024-03-02T12:08:02;23.60;1.00
19025;DHT22;9645;51.448;6.260;2024-03-02T12:10:31;22.80;1.00
19025;DHT22;9645;51.448;6.260;2024-03-02T14:04:32;14.80;99.90
19025;DHT22;9645;51.448;6.260;2024-03-02T14:07:01;14.70;99.90
19025;DHT22;9645;51.448;6.260;2024-03-02T14:09:28;14.60;99.90
19025;DHT22;9645;51.448;6.260;2024-03-02T14:11:56;14.60;99.90
19025;DHT22;9645;51.448;6.260;2024-03-02T14:14:27;14.60;99.90
19025;DHT22;9645;51.448;6.260;2024-03-02T14:16:54;14.60;99.90
19025;DHT22;9645;51.448;6.260;2024-03-02T14:19:25;14.60;99.90
19025;DHT22;9645;51.448;6.260;2024-03-02T14:21:53;14.50;99.90
19025;DHT22;9645;51.448;6.260;2024-03-02T14:24:21;14.30;99.90
19025;DHT22;9645;51.448;6.260;2024-03-02T14:26:55;14.30;99.90
19025;DHT22;9645;51.448;6.260;2024-03-02T14:29:26;14.20;99.90
19025;DHT22;9645;51.448;6.260;2024-03-02T14:31:53;14.30;99.90
19025;DHT22;9645;51.448;6.260;2024-03-02T14:34:20;14.40;99.90
19025;DHT22;9645;51.448;6.260;2024-03-02T14:36:47;14.40;99.90
19025;DHT22;9645;51.448;6.260;2024-03-02T14:39:15;14.60;99.90
19025;DHT22;9645;51.448;6.260;2024-03-02T14:41:42;14.60;99.90
19025;DHT22;9645;51.448;6.260;2024-03-02T14:44:09;14.70;99.90
19025;DHT22;9645;51.448;6.260;2024-03-02T14:46:38;14.70;99.90
19025;DHT22;9645;51.448;6.260;2024-03-02T14:49:06;14.80;99.90
19025;DHT22;9645;51.448;6.260;2024-03-02T14:51:33;14.90;99.90
19025;DHT22;9645;51.448;6.260;2024-03-02T14:54:00;15.00;99.90
19025;DHT22;9645;51.448;6.260;2024-03-02T14:56:28;15.00;99.90
19025;DHT22;9645;51.448;6.260;2024-03-02T14:58:56;15.10;99.90
19025;DHT22;9645;51.448;6.260;2024-03-02T15:01:24;15.20;99.90
19025;DHT22;9645;51.448;6.260;2024-03-02T15:03:54;15.10;99.90
19025;DHT22;9645;51.448;6.260;2024-03-02T15:06:21;15.00;99.90
19025;DHT22;9645;51.448;6.260;2024-03-02T15:08:49;14.90;99.90
19025;DHT22;9645;51.448;6.260;2024-03-02T15:11:16;14.80;99.90
19025;DHT22;9645;51.448;6.260;2024-03-02T15:13:44;14.70;1.00
19025;DHT22;9645;51.448;6.260;2024-03-02T15:16:11;14.60;99.90
19025;DHT22;9645;51.448;6.260;2024-03-02T15:18:39;14.40;1.00
19025;DHT22;9645;51.448;6.260;2024-03-02T15:21:09;14.40;1.00
19025;DHT22;9645;51.448;6.260;2024-03-02T15:23:39;14.30;1.00
19025;DHT22;9645;51.448;6.260;2024-03-02T15:26:07;14.20;1.00
19025;DHT22;9645;51.448;6.260;2024-03-02T15:28:35;14.20;1.00
19025;DHT22;9645;51.448;6.260;2024-03-02T15:31:02;14.20;1.00
19025;DHT22;9645;51.448;6.260;2024-03-02T15:33:32;14.20;1.00
19025;DHT22;9645;51.448;6.260;2024-03-02T15:35:59;14.30;1.00
19025;DHT22;9645;51.448;6.260;2024-03-02T15:38:28;14.20;1.00
19025;DHT22;9645;51.448;6.260;2024-03-02T15:40:57;14.20;1.00
19025;DHT22;9645;51.448;6.260;2024-03-02T15:43:26;14.20;1.00
19025;DHT22;9645;51.448;6.260;2024-03-02T15:45:57;14.10;1.00
19025;DHT22;9645;51.448;6.260;2024-03-02T15:48:24;14.10;1.00
19025;DHT22;9645;51.448;6.260;2024-03-02T15:50:52;14.10;1.00
19025;DHT22;9645;51.448;6.260;2024-03-02T15:53:21;14.00;1.00
19025;DHT22;9645;51.448;6.260;2024-03-02T15:55:50;14.00;1.00
19025;DHT22;9645;51.448;6.260;2024-03-02T15:58:18;13.90;1.00
19025;DHT22;9645;51.448;6.260;2024-03-02T16:00:46;13.90;1.00
19025;DHT22;9645;51.448;6.260;2024-03-02T16:03:14;13.80;1.00
19025;DHT22;9645;51.448;6.260;2024-03-02T16:05:42;13.80;1.00
19025;DHT22;9645;51.448;6.260;2024-03-02T16:08:09;13.80;1.00
19025;DHT22;9645;51.448;6.260;2024-03-02T16:10:36;13.80;1.00
19025;DHT22;9645;51.448;6.260;2024-03-02T16:13:05;13.70;1.00
19025;DHT22;9645;51.448;6.260;2024-03-02T16:15:31;13.60;1.00
19025;DHT22;9645;51.448;6.260;2024-03-02T16:17:59;13.60;1.00
19025;DHT22;9645;51.448;6.260;2024-03-02T16:20:27;13.60;1.00
19025;DHT22;9645;51.448;6.260;2024-03-02T16:22:54;13.50;1.00
19025;DHT22;9645;51.448;6.260;2024-03-02T16:25:21;13.50;1.00
19025;DHT22;9645;51.448;6.260;2024-03-02T16:27:50;13.50;1.00
19025;DHT22;9645;51.448;6.260;2024-03-02T16:30:26;13.50;1.00
19025;DHT22;9645;51.448;6.260;2024-03-02T16:32:54;13.40;1.00
19025;DHT22;9645;51.448;6.260;2024-03-02T16:35:21;13.40;1.00
19025;DHT22;9645;51.448;6.260;2024-03-02T16:37:48;13.40;1.00
19025;DHT22;9645;51.448;6.260;2024-03-02T16:40:15;13.30;1.00
19025;DHT22;9645;51.448;6.260;2024-03-02T16:42:42;13.40;1.00
19025;DHT22;9645;51.448;6.260;2024-03-02T16:45:09;13.40;1.00
19025;DHT22;9645;51.448;6.260;2024-03-02T16:47:39;13.40;1.00
19025;DHT22;9645;51.448;6.260;2024-03-02T16:50:06;13.40;1.00
19025;DHT22;9645;51.448;6.260;2024-03-02T16:52:37;13.30;1.00
19025;DHT22;9645;51.448;6.260;2024-03-02T16:55:05;13.20;1.00
19025;DHT22;9645;51.448;6.260;2024-03-02T16:57:33;13.30;1.00
19025;DHT22;9645;51.448;6.260;2024-03-02T17:00:00;13.20;1.00
19025;DHT22;9645;51.448;6.260;2024-03-02T17:02:27;13.20;1.00
19025;DHT22;9645;51.448;6.260;2024-03-02T17:04:56;13.20;1.00
19025;DHT22;9645;51.448;6.260;2024-03-02T17:07:23;13.20;1.00
19025;DHT22;9645;51.448;6.260;2024-03-02T17:09:55;13.10;1.00
19025;DHT22;9645;51.448;6.260;2024-03-02T17:12:22;13.10;1.00
19025;DHT22;9645;51.448;6.260;2024-03-02T17:14:51;13.10;1.00
19025;DHT22;9645;51.448;6.260;2024-03-02T17:17:18;13.10;1.00
19025;DHT22;9645;51.448;6.260;2024-03-02T17:19:45;13.00;1.00
19025;DHT22;9645;51.448;6.260;2024-03-02T17:22:14;12.90;1.00
19025;DHT22;9645;51.448;6.260;2024-03-02T17:24:41;12.90;1.00
19025;DHT22;9645;51.448;6.260;2024-03-02T17:27:08;13.00;1.00
19025;DHT22;9645;51.448;6.260;2024-03-02T17:29:35;12.90;1.00
19025;DHT22;9645;51.448;6.260;2024-03-02T17:32:02;12.90;1.00
19025;DHT22;9645;51.448;6.260;2024-03-02T17:34:29;12.90;1.00
19025;DHT22;9645;51.448;6.260;2024-03-02T17:36:56;12.90;1.00
19025;DHT22;9645;51.448;6.260;2024-03-02T17:39:25;12.90;1.00
19025;DHT22;9645;51.448;6.260;2024-03-02T17:41:52;12.90;1.00
19025;DHT22;9645;51.448;6.260;2024-03-02T17:44:19;12.90;1.00
19025;DHT22;9645;51.448;6.260;2024-03-02T17:46:46;13.50;1.00
19025;DHT22;9645;51.448;6.260;2024-03-02T17:49:13;12.90;1.00
19025;DHT22;9645;51.448;6.260;2024-03-02T17:51:40;12.90;1.00
19025;DHT22;9645;51.448;6.260;2024-03-02T17:54:07;12.90;1.00
19025;DHT22;9645;51.448;6.260;2024-03-02T17:56:35;12.90;1.00
19025;DHT22;9645;51.448;6.260;2024-03-02T17:59:02;12.90;1.00
19025;DHT22;9645;51.448;6.260;2024-03-02T18:01:29;12.90;1.00
19025;DHT22;9645;51.448;6.260;2024-03-02T18:03:56;12.90;1.00
19025;DHT22;9645;51.448;6.260;2024-03-02T18:06:23;12.20;1.00
19025;DHT22;9645;51.448;6.260;2024-03-02T18:08:50;12.90;1.00
19025;DHT22;9645;51.448;6.260;2024-03-02T18:11:17;12.90;1.00
19025;DHT22;9645;51.448;6.260;2024-03-02T18:13:47;12.90;1.00
19025;DHT22;9645;51.448;6.260;2024-03-02T18:16:14;12.90;1.00
19025;DHT22;9645;51.448;6.260;2024-03-02T18:18:43;12.90;1.00
19025;DHT22;9645;51.448;6.260;2024-03-02T18:21:10;12.80;1.00
19025;DHT22;9645;51.448;6.260;2024-03-02T18:23:37;12.80;1.00
19025;DHT22;9645;51.448;6.260;2024-03-02T18:26:04;12.80;1.00
19025;DHT22;9645;51.448;6.260;2024-03-02T18:28:31;12.80;1.00
19025;DHT22;9645;51.448;6.260;2024-03-02T18:30:59;12.80;1.00
19025;DHT22;9645;51.448;6.260;2024-03-02T18:33:26;12.80;1.00
19025;DHT22;9645;51.448;6.260;2024-03-02T18:35:54;12.80;1.00
19025;DHT22;9645;51.448;6.260;2024-03-02T18:38:22;12.80;1.00
19025;DHT22;9645;51.448;6.260;2024-03-02T18:40:49;12.80;1.00
19025;DHT22;9645;51.448;6.260;2024-03-02T18:43:16;12.70;1.00
19025;DHT22;9645;51.448;6.260;2024-03-02T18:45:43;12.70;1.00
19025;DHT22;9645;51.448;6.260;2024-03-02T18:48:12;12.60;1.00
19025;DHT22;9645;51.448;6.260;2024-03-02T18:50:39;12.60;1.00
19025;DHT22;9645;51.448;6.260;2024-03-02T18:53:06;12.60;1.00
19025;DHT22;9645;51.448;6.260;2024-03-02T18:55:34;12.50;1.00
19025;DHT22;9645;51.448;6.260;2024-03-02T18:58:01;12.50;1.00
19025;DHT22;9645;51.448;6.260;2024-03-02T19:00:29;12.50;1.00
19025;DHT22;9645;51.448;6.260;2024-03-02T19:02:56;12.40;1.00
19025;DHT22;9645;51.448;6.260;2024-03-02T19:05:24;12.50;1.00
19025;DHT22;9645;51.448;6.260;2024-03-02T19:07:51;12.50;1.00
19025;DHT22;9645;51.448;6.260;2024-03-02T19:10:18;12.40;1.00
19025;DHT22;9645;51.448;6.260;2024-03-02T19:12:45;12.40;1.00
19025;DHT22;9645;51.448;6.260;2024-03-02T19:15:13;12.40;1.00
19025;DHT22;9645;51.448;6.260;2024-03-02T19:17:40;12.40;1.00
19025;DHT22;9645;51.448;6.260;2024-03-02T19:20:08;12.40;1.00
19025;DHT22;9645;51.448;6.260;2024-03-02T19:22:38;12.40;1.00
19025;DHT22;9645;51.448;6.260;2024-03-02T19:25:06;12.30;1.00
19025;DHT22;9645;51.448;6.260;2024-03-02T19:27:35;12.30;1.00
19025;DHT22;9645;51.448;6.260;2024-03-02T19:30:03;12.20;1.00
19025;DHT22;9645;51.448;6.260;2024-03-02T19:32:33;12.20;1.00
19025;DHT22;9645;51.448;6.260;2024-03-02T19:35:00;12.80;1.00
19025;DHT22;9645;51.448;6.260;2024-03-02T19:37:27;12.00;1.00
19025;DHT22;9645;51.448;6.260;2024-03-02T19:39:55;12.00;1.00
19025;DHT22;9645;51.448;6.260;2024-03-02T19:42:22;12.00;1.00
19025;DHT22;9645;51.448;6.260;2024-03-02T19:44:49;12.00;1.00
19025;DHT22;9645;51.448;6.260;2024-03-02T19:47:16;11.90;1.00
19025;DHT22;9645;51.448;6.260;2024-03-02T19:49:45;11.90;1.00
19025;DHT22;9645;51.448;6.260;2024-03-02T19:52:11;11.80;1.00
19025;DHT22;9645;51.448;6.260;2024-03-02T19:54:38;11.80;1.00
19025;DHT22;9645;51.448;6.260;2024-03-02T19:57:06;11.70;1.00
19025;DHT22;9645;51.448;6.260;2024-03-02T19:59:33;11.70;1.00
19025;DHT22;9645;51.448;6.260;2024-03-02T20:02:00;11.70;1.00
19025;DHT22;9645;51.448;6.260;2024-03-02T20:04:28;11.60;1.00
19025;DHT22;9645;51.448;6.260;2024-03-02T20:06:55;11.60;1.00
19025;DHT22;9645;51.448;6.260;2024-03-02T20:09:22;11.70;1.00
19025;DHT22;9645;51.448;6.260;2024-03-02T20:11:49;11.70;1.00
19025;DHT22;9645;51.448;6.260;2024-03-02T20:14:18;11.60;1.00
19025;DHT22;9645;51.448;6.260;2024-03-02T20:16:45;11.60;1.00
19025;DHT22;9645;51.448;6.260;2024-03-02T20:19:12;11.60;1.00
19025;DHT22;9645;51.448;6.260;2024-03-02T20:21:41;11.50;1.00
19025;DHT22;9645;51.448;6.260;2024-03-02T20:24:08;11.40;1.00